This is the latest recevied weather packets stored in our database for station/object N1KM-15. If no packets are shown the sender has not sent any weather packets the latest 10 day(s).
| Time | Temp. | Humidity | Pressure | Rain* | Wind** | Luminosity | Snow |
|---|---|---|---|---|---|---|---|
| 1777812300 | 10° C | 59% | 1003.7 hPa | 0 mm | - | - | - |
| 1777811400 | 10° C | 58% | 1003.8 hPa | 0 mm | - | - | - |
| 1777810500 | 9.44° C | 60% | 1004.1 hPa | 0 mm | - | - | - |
| 1777808700 | 8.33° C | 63% | 1004.4 hPa | 0 mm | - | - | - |
| 1777807800 | 7.78° C | 65% | 1004.7 hPa | 0 mm | - | - | - |
| 1777806900 | 6.67° C | 67% | 1005.1 hPa | 0 mm | - | - | - |
| 1777806000 | 6.11° C | 69% | 1005.4 hPa | 0 mm | - | - | - |
| 1777805100 | 6.67° C | 67% | 1005.4 hPa | 0 mm | - | - | - |
| 1777804200 | 6.67° C | 64% | 1005.3 hPa | 0 mm | - | - | - |
| 1777803300 | 6.67° C | 65% | 1005 hPa | 0 mm | - | - | - |
| 1777802400 | 6.67° C | 65% | 1005.2 hPa | 0 mm | - | - | - |
| 1777801500 | 7.22° C | 65% | 1005.2 hPa | 0 mm | - | - | - |
| 1777800600 | 7.22° C | 66% | 1005.2 hPa | 0 mm | - | - | - |
| 1777799700 | 7.22° C | 68% | 1005.1 hPa | 0 mm | - | - | - |
| 1777798800 | 7.22° C | 65% | 1005.3 hPa | 0 mm | - | - | - |
| 1777797900 | 7.22° C | 65% | 1005.5 hPa | 0 mm | - | - | - |
| 1777797000 | 7.78° C | 65% | 1005.5 hPa | 0 mm | - | - | - |
| 1777796100 | 7.78° C | 61% | 1005.8 hPa | 0 mm | - | - | - |
| 1777795200 | 7.78° C | 61% | 1005.6 hPa | 0 mm | - | - | - |
| 1777794300 | 7.78° C | 62% | 1005.9 hPa | 0 mm | - | - | - |
| 1777793400 | 7.78° C | 62% | 1006.2 hPa | 0 mm | - | - | - |
| 1777792500 | 8.33° C | 59% | 1006 hPa | 0 mm | - | - | - |
| 1777791600 | 8.33° C | 60% | 1006.1 hPa | 0 mm | - | - | - |
| 1777790700 | 8.33° C | 56% | 1006.4 hPa | 0 mm | - | - | - |
| 1777789800 | 8.33° C | 58% | 1006.4 hPa | 0 mm | - | - | - |
* Rain since midnight (hover to see other rain measurements)
** Current wind speed in m/s (hover to see current wind gust speed)